Aérodrome :
LOGIN :

S'inscrire | Disclaimer

   EN    FR    IT 

 










Légende :    VFR   VFR Marginal   IFR   IFR Intensif   IFR Très Intensif
Visi : 
Plafond : 
>= 8 km
>= 3000ft
5 à 8 km
1000 à 3000 ft
1500m à 5 km
500 à 1000 ft
800 à 1500m
200 à 500 ft
< 800m
< 200 ft
Symboles :   Orages  Brouillard  Fortes neiges  Fortes précipitations  Vent > 20 kt
SIGMETs :   Divers  Orages  Givrage  Turbulence  Onde Orograph.  Cendres Volcan.







- Altitude de l'aérodrome : 33 ft
- Code IATA : MHZ


EGUN - RAF Mildenhall

DERNIER METAR :
  • 251456Z 01013KT 9999 CLR 11/02 A3047 RMK AO2A SLP322 T01130015 51003 $

METARs EXPIRÉS :
  • 251356Z 35010G18KT 9999 SCT041 12/02 A3047 RMK AO2A SLP322 T01180017 WND DATA ESTMD .
  • 251346Z 02015G22KT 9999 SCT043 11/02 A3047 RMK AO2A SLP322 WND DATA ESTMD $
  • 251256Z 35010G21KT 9999 BKN043 12/01 A3046 RMK AO2A SLP318 T01170013 WND DATA ESTMD .

TAF TAF EGUN
Valide du 25 à 12h jusqu'au 26 à 18h UTC


251210Z 2512/2618 34012G20KT 9999 SCT040 QNH3040INS
BECMG 2517/2518 01012KT 9999 FEW040 QNH3050INS BEMCG 2520/2521 VRB06KT 9999 SKC QNH3053INS
BECMG 2603/2604 26006KT 9999 SCT040 QNH3052INS TX11/2611Z TN02/2601Z
Pas de NOTAMs connus pour ce terrain.



MET'MAP, la Météo Aéronautique d'un coup d'oeil ! - Copyright ORBIFLY Décembre 2007 - Disclaimer

ORBIFLY MET'MAP TEAM :

Programmation & Développement : Alexandra Zaïnal
Conception & Développement : Baudouin d'Aumeries
Co-Programmation & Développement : Marc-Olivier Méhu
Soutien technique & logistique : Manuel Goepfert

Contact : metmap@orbifly.com




SOURCES & CREDITS :

   NOAA